Time;durP1;ratioP1;P1;durP2;ratioP2;P2;SDS_P1;SDS_P2;PMS_P1;PMS_P2;Temp;Humidity;BMP_temperature;BMP_pressure;BME280_temperature;BME280_humidity;BME280_pressure;Samples;Min_cycle;Max_cycle;Signal;HPM_P1;HPM_P2
2021/01/25 00:00:42;;;;;;;34.70;23.02;;;;;;;1.05;99.71;97195.50;2080365;28;20289;-70
2021/01/25 00:01:44;;;;;;;35.20;22.10;;;;;;;1.05;98.14;97202.59;2080618;28;20223;-70
2021/01/25 00:02:45;;;;;;;37.58;22.65;;;;;;;1.12;97.54;97197.78;2080374;28;20223;-70
2021/01/25 00:03:47;;;;;;;37.43;23.13;;;;;;;1.05;97.55;97192.09;2079693;28;20265;-70
2021/01/25 00:04:48;;;;;;;37.33;22.80;;;;;;;1.09;97.41;97196.50;2079861;28;20215;-70
2021/01/25 00:05:49;;;;;;;35.20;22.60;;;;;;;1.12;97.88;97200.41;2079528;28;20219;-70
2021/01/25 00:06:50;;;;;;;35.47;22.23;;;;;;;1.09;97.45;97188.63;2079809;28;20227;-70
2021/01/25 00:07:51;;;;;;;38.77;23.50;;;;;;;1.10;97.03;97197.28;2071478;28;20224;-70
2021/01/25 00:08:52;;;;;;;37.47;23.55;;;;;;;1.08;97.61;97186.28;2079171;28;20698;-73
2021/01/25 00:09:53;;;;;;;40.43;22.70;;;;;;;1.09;97.63;97193.88;2080200;28;20586;-71
2021/01/25 00:10:54;;;;;;;37.85;22.45;;;;;;;1.02;97.14;97182.91;2080472;28;20306;-70
2021/01/25 00:11:55;;;;;;;40.00;23.17;;;;;;;1.11;97.45;97198.84;2080505;28;20223;-70
2021/01/25 00:12:56;;;;;;;34.95;21.88;;;;;;;1.09;97.11;97193.09;2080350;28;20298;-70
2021/01/25 00:13:58;;;;;;;37.70;22.50;;;;;;;1.13;97.05;97200.13;2080601;28;20238;-70
2021/01/25 00:14:58;;;;;;;38.35;22.48;;;;;;;1.11;96.50;97186.47;2080369;28;20226;-70
2021/01/25 00:16:00;;;;;;;35.63;22.77;;;;;;;1.13;95.87;97188.84;2079444;28;20266;-70
2021/01/25 00:17:02;;;;;;;37.90;21.35;;;;;;;1.11;95.42;97186.47;2079635;28;20677;-70
2021/01/25 00:18:03;;;;;;;32.05;20.48;;;;;;;1.11;95.91;97186.47;2080401;28;20219;-69
2021/01/25 00:19:04;;;;;;;33.88;21.60;;;;;;;1.08;95.62;97181.81;2080500;28;20272;-69
2021/01/25 00:20:06;;;;;;;32.07;19.33;;;;;;;1.08;94.83;97179.19;2079675;28;20733;-70
2021/01/25 00:21:07;;;;;;;31.73;20.23;;;;;;;1.07;94.86;97180.25;2079426;28;20226;-71
2021/01/25 00:22:08;;;;;;;34.80;22.03;;;;;;;1.08;95.05;97187.06;2080206;28;20227;-70
2021/01/25 00:23:09;;;;;;;33.85;21.00;;;;;;;1.06;95.47;97183.94;2079522;28;20223;-69
2021/01/25 00:24:11;;;;;;;33.93;20.90;;;;;;;1.02;95.25;97169.00;2079642;28;20227;-69
2021/01/25 00:25:12;;;;;;;32.30;19.92;;;;;;;1.12;94.95;97182.00;2079720;28;21956;-70
2021/01/25 00:26:13;;;;;;;33.30;20.45;;;;;;;1.09;94.70;97172.84;2080435;28;20230;-69
2021/01/25 00:27:14;;;;;;;36.53;20.95;;;;;;;1.13;94.88;97186.22;2079514;28;20706;-71
2021/01/25 00:28:15;;;;;;;27.27;19.70;;;;;;;1.10;94.66;97177.03;2079636;28;20592;-68
2021/01/25 00:29:16;;;;;;;37.47;20.90;;;;;;;1.11;94.75;97173.34;2079782;28;20554;-69
2021/01/25 00:30:19;;;;;;;27.93;19.60;;;;;;;1.09;94.77;97174.69;2079466;28;20327;-69
2021/01/25 00:31:19;;;;;;;29.67;20.63;;;;;;;1.05;94.58;97171.88;2071897;28;20359;-68
2021/01/25 00:32:22;;;;;;;33.10;20.70;;;;;;;1.09;94.90;97175.47;2079632;28;20219;-70
2021/01/25 00:33:22;;;;;;;26.88;20.40;;;;;;;1.06;94.55;97170.81;2080015;28;20318;-70
2021/01/25 00:34:24;;;;;;;31.23;19.90;;;;;;;1.06;94.42;97167.41;2080472;28;20233;-70
2021/01/25 00:35:25;;;;;;;29.63;20.08;;;;;;;1.09;94.77;97172.06;2080367;28;20229;-70
2021/01/25 00:36:26;;;;;;;33.87;20.47;;;;;;;1.08;94.50;97171.28;2080198;28;20716;-70
2021/01/25 00:37:27;;;;;;;32.50;20.00;;;;;;;1.04;94.90;97169.50;2079437;28;20288;-70
2021/01/25 00:38:28;;;;;;;32.47;20.97;;;;;;;1.05;94.99;97173.72;2071617;28;20232;-69
2021/01/25 00:39:29;;;;;;;33.55;21.75;;;;;;;1.04;95.20;97164.25;2079631;28;20223;-69
2021/01/25 00:40:30;;;;;;;32.20;21.23;;;;;;;1.10;95.37;97173.63;2080322;28;20246;-71
2021/01/25 00:41:31;;;;;;;32.80;21.55;;;;;;;1.05;95.47;97166.63;2080140;28;20734;-70
2021/01/25 00:42:33;;;;;;;33.47;20.75;;;;;;;1.06;94.66;97162.16;2079615;28;20219;-70
2021/01/25 00:43:34;;;;;;;37.83;22.40;;;;;;;1.10;94.38;97165.75;2079430;28;20295;-70
2021/01/25 00:44:35;;;;;;;35.23;22.83;;;;;;;1.12;94.06;97167.03;2071054;28;20227;-70
2021/01/25 00:45:36;;;;;;;31.80;20.83;;;;;;;1.17;93.36;97152.28;2079454;28;20228;-70
2021/01/25 00:46:37;;;;;;;41.20;22.90;;;;;;;1.16;92.20;97151.50;2079910;28;20234;-71
2021/01/25 00:47:39;;;;;;;31.05;20.70;;;;;;;1.13;92.57;97150.25;2079453;28;20314;-71
2021/01/25 00:48:40;;;;;;;31.90;21.70;;;;;;;1.13;92.73;97160.75;2079750;28;20242;-71
2021/01/25 00:49:41;;;;;;;35.20;22.70;;;;;;;1.16;92.98;97161.25;2080274;28;20231;-70
2021/01/25 00:50:42;;;;;;;39.13;22.80;;;;;;;1.10;93.45;97166.53;2080207;28;20235;-71
2021/01/25 00:51:44;;;;;;;41.22;23.08;;;;;;;1.13;93.16;97160.75;2079411;28;20546;-70
2021/01/25 00:52:45;;;;;;;32.90;20.38;;;;;;;1.25;92.64;97159.56;2071339;28;20293;-70
2021/01/25 00:53:46;;;;;;;32.47;20.40;;;;;;;1.26;90.94;97163.72;2079616;28;20211;-71
2021/01/25 00:54:47;;;;;;;34.77;21.40;;;;;;;1.26;90.38;97163.72;2079381;28;20749;-71
2021/01/25 00:55:48;;;;;;;35.38;22.75;;;;;;;1.13;90.43;97141.59;2079425;28;20994;-71
2021/01/25 00:56:50;;;;;;;29.88;21.83;;;;;;;1.24;90.78;97152.72;2071463;28;20303;-70
2021/01/25 00:57:51;;;;;;;30.02;20.73;;;;;;;1.20;91.28;97156.97;2079379;28;20599;-70
2021/01/25 00:58:53;;;;;;;34.73;22.20;;;;;;;1.26;91.39;97156.63;2079918;28;20227;-72
2021/01/25 00:59:53;;;;;;;29.20;20.92;;;;;;;1.23;91.04;97153.81;2080317;28;20231;-71
2021/01/25 01:00:55;;;;;;;29.20;19.50;;;;;;;1.33;90.04;97161.53;2080271;28;20223;-70
2021/01/25 01:01:55;;;;;;;27.52;17.85;;;;;;;1.31;88.95;97158.44;2079443;28;20239;-70
2021/01/25 01:02:58;;;;;;;29.20;19.23;;;;;;;1.35;89.48;97151.53;2079679;28;20438;-70
2021/01/25 01:03:58;;;;;;;28.60;19.25;;;;;;;1.33;88.40;97161.53;2079300;28;20219;-71
2021/01/25 01:05:00;;;;;;;26.00;18.97;;;;;;;1.32;88.29;97155.50;2079606;28;20226;-70
2021/01/25 01:06:01;;;;;;;24.35;17.73;;;;;;;1.27;87.96;97149.53;2079293;28;20219;-70
2021/01/25 01:07:02;;;;;;;25.77;18.27;;;;;;;1.35;88.16;97159.41;2079551;28;20289;-70
2021/01/25 01:08:03;;;;;;;24.38;17.65;;;;;;;1.37;88.08;97155.44;2080316;28;20223;-71
2021/01/25 01:09:04;;;;;;;25.90;17.67;;;;;;;1.33;87.70;97156.28;2080196;28;20223;-70
2021/01/25 01:10:07;;;;;;;26.40;18.08;;;;;;;1.35;88.14;97162.81;2080224;28;20223;-71
2021/01/25 01:11:08;;;;;;;28.02;18.52;;;;;;;1.41;87.82;97155.66;2079245;28;20686;-71
2021/01/25 01:12:09;;;;;;;24.15;17.75;;;;;;;1.34;87.34;97152.59;2079494;28;20712;-70
2021/01/25 01:13:11;;;;;;;25.45;17.85;;;;;;;1.39;87.24;97152.50;2080225;28;20319;-70
2021/01/25 01:14:12;;;;;;;27.35;17.33;;;;;;;1.36;86.62;97150.47;2079211;28;20598;-70
2021/01/25 01:15:14;;;;;;;20.90;16.97;;;;;;;1.37;86.37;97146.78;2079717;28;20238;-71
2021/01/25 01:16:15;;;;;;;22.90;17.30;;;;;;;1.39;86.30;97150.69;2096184;28;20229;-71
2021/01/25 01:17:16;;;;;;;24.57;17.47;;;;;;;1.34;86.49;97142.09;2087525;28;20306;-71
2021/01/25 01:18:18;;;;;;;25.42;18.08;;;;;;;1.34;86.75;97152.59;2079492;28;20713;-70
2021/01/25 01:19:19;;;;;;;21.08;16.85;;;;;;;1.39;87.06;97149.88;2079457;28;20215;-71
2021/01/25 01:20:20;;;;;;;21.50;17.52;;;;;;;1.37;85.95;97152.81;2079514;28;20218;-70
2021/01/25 01:21:21;;;;;;;24.13;18.00;;;;;;;1.40;86.16;97152.25;2080227;28;20223;-70
2021/01/25 01:22:22;;;;;;;20.52;17.02;;;;;;;1.41;85.31;97145.94;2079892;28;20250;-72
2021/01/25 01:23:23;;;;;;;20.00;16.33;;;;;;;1.44;86.21;97151.69;2080129;28;20234;-71
2021/01/25 01:24:24;;;;;;;24.27;18.10;;;;;;;1.37;86.10;97141.50;2080183;28;20293;-70
2021/01/25 01:25:25;;;;;;;25.47;17.13;;;;;;;1.34;86.45;97148.13;2080014;28;20228;-71
2021/01/25 01:26:26;;;;;;;23.27;16.63;;;;;;;1.37;86.43;97144.16;2080269;28;20280;-71
2021/01/25 01:27:27;;;;;;;23.53;18.10;;;;;;;1.37;86.69;97147.56;2080204;28;20281;-70
2021/01/25 01:28:28;;;;;;;22.25;18.50;;;;;;;1.37;86.25;97142.28;2080178;28;20224;-71
2021/01/25 01:29:29;;;;;;;22.57;18.27;;;;;;;1.35;86.58;97138.41;2080215;28;20230;-71
2021/01/25 01:30:30;;;;;;;21.33;17.27;;;;;;;1.31;86.59;97142.66;2080141;28;20688;-71
2021/01/25 01:31:31;;;;;;;24.47;18.30;;;;;;;1.28;87.17;97135.34;2079321;28;20223;-71
2021/01/25 01:32:32;;;;;;;23.33;16.48;;;;;;;1.28;87.26;97137.97;2079506;28;20228;-71
2021/01/25 01:33:34;;;;;;;21.63;16.57;;;;;;;1.30;87.01;97141.06;2080291;28;20224;-70
2021/01/25 01:34:35;;;;;;;19.33;15.95;;;;;;;1.29;87.11;97135.03;2079251;28;20283;-70
2021/01/25 01:35:36;;;;;;;21.33;17.00;;;;;;;1.20;87.14;97118.34;2079583;28;20234;-70
2021/01/25 01:36:37;;;;;;;20.75;17.98;;;;;;;1.27;87.32;97131.16;2079761;28;20227;-71
2021/01/25 01:37:38;;;;;;;25.33;17.90;;;;;;;1.31;87.64;97132.16;2079293;28;20678;-71
2021/01/25 01:38:39;;;;;;;22.38;17.40;;;;;;;1.30;87.08;97127.94;2079483;28;20231;-70
2021/01/25 01:39:41;;;;;;;23.13;17.53;;;;;;;1.24;87.69;97124.63;2079720;28;20314;-70
2021/01/25 01:40:41;;;;;;;23.80;17.23;;;;;;;1.36;87.85;97122.34;2080842;28;21765;-71
2021/01/25 01:41:43;;;;;;;23.10;17.00;;;;;;;1.36;87.71;97134.69;2080602;28;20286;-71
2021/01/25 01:42:43;;;;;;;20.50;16.75;;;;;;;1.27;87.95;97129.31;2080659;28;20606;-71
2021/01/25 01:43:45;;;;;;;21.97;17.20;;;;;;;1.27;88.08;97126.69;2080843;28;20231;-70
2021/01/25 01:44:46;;;;;;;22.30;17.80;;;;;;;1.22;88.64;97132.00;2080745;28;20247;-70
2021/01/25 01:45:47;;;;;;;24.63;18.58;;;;;;;1.17;89.39;97131.28;2080966;28;20236;-70
2021/01/25 01:46:48;;;;;;;26.27;17.50;;;;;;;1.12;89.50;97124.22;2080805;28;20223;-71
2021/01/25 01:47:49;;;;;;;21.57;17.10;;;;;;;1.08;89.53;97128.50;2080786;28;20228;-70
2021/01/25 01:48:51;;;;;;;21.08;17.05;;;;;;;0.99;90.08;97119.69;2080716;28;20258;-70
2021/01/25 01:49:52;;;;;;;22.40;16.88;;;;;;;0.90;90.48;97109.03;2080405;28;20685;-72
2021/01/25 01:50:53;;;;;;;26.30;17.00;;;;;;;0.94;90.71;97123.16;2081331;28;20227;-69
2021/01/25 01:51:55;;;;;;;22.77;16.90;;;;;;;0.89;91.09;97123.22;2080602;28;20227;-70
2021/01/25 01:52:56;;;;;;;23.75;17.85;;;;;;;0.91;91.07;97118.47;2080898;28;20697;-70
2021/01/25 01:53:58;;;;;;;22.95;17.35;;;;;;;0.87;91.41;97129.78;2081592;28;20318;-69
2021/01/25 01:55:00;;;;;;;20.77;16.80;;;;;;;0.85;91.37;97136.09;2081366;28;20310;-70
2021/01/25 01:56:01;;;;;;;20.02;16.67;;;;;;;0.87;91.07;97127.97;2080699;28;20227;-70
2021/01/25 01:57:03;;;;;;;21.92;16.88;;;;;;;0.88;91.11;97129.53;2080496;28;20306;-69
2021/01/25 01:58:04;;;;;;;25.08;17.88;;;;;;;0.89;91.24;97135.56;2080338;28;20227;-69
2021/01/25 01:59:05;;;;;;;24.85;17.20;;;;;;;0.88;91.09;97129.53;2080828;28;20243;-70
2021/01/25 02:00:07;;;;;;;23.63;17.43;;;;;;;0.92;91.06;97124.50;2081597;28;20219;-69
2021/01/25 02:01:13;;;;;;;21.13;16.48;;;;;;;0.87;91.37;97122.72;2078987;28;20219;-70
2021/01/25 02:02:14;;;;;;;20.07;16.00;;;;;;;0.88;91.23;97123.50;2081436;28;20243;-70
2021/01/25 02:03:15;;;;;;;24.92;16.65;;;;;;;0.91;91.03;97123.72;2081271;28;20672;-70
2021/01/25 02:04:17;;;;;;;21.70;17.53;;;;;;;0.89;90.29;97131.09;2081428;28;20574;-70
2021/01/25 02:05:19;;;;;;;21.88;16.88;;;;;;;0.89;90.04;97128.47;2081426;28;20223;-70
2021/01/25 02:06:21;;;;;;;24.05;17.50;;;;;;;0.98;89.82;97126.00;2080638;28;20219;-69
2021/01/25 02:07:22;;;;;;;23.25;18.45;;;;;;;0.96;89.79;97130.75;2080140;28;20237;-72
2021/01/25 02:08:23;;;;;;;25.52;18.77;;;;;;;0.92;90.47;97129.75;2080709;28;20753;-71
2021/01/25 02:09:25;;;;;;;25.25;18.48;;;;;;;0.92;89.70;97138.41;2080409;28;20223;-69
2021/01/25 02:10:28;;;;;;;21.58;18.27;;;;;;;0.91;89.80;97128.97;2080567;28;20232;-70
2021/01/25 02:11:29;;;;;;;21.35;17.90;;;;;;;0.93;89.49;97126.84;2081425;28;20302;-70
2021/01/25 02:12:32;;;;;;;25.63;18.70;;;;;;;0.95;89.50;97132.59;2080484;28;20655;-69
2021/01/25 02:13:34;;;;;;;24.30;18.48;;;;;;;1.03;88.48;97131.19;2080651;28;20215;-70
2021/01/25 02:14:36;;;;;;;22.17;18.13;;;;;;;1.05;88.68;97134.31;2081356;28;20570;-70
2021/01/25 02:15:37;;;;;;;24.35;18.70;;;;;;;1.04;88.41;97140.63;2080060;28;20230;-71
2021/01/25 02:16:39;;;;;;;23.00;18.37;;;;;;;1.05;88.40;97137.72;2080597;28;20238;-70
2021/01/25 02:17:40;;;;;;;25.77;18.80;;;;;;;1.01;88.26;97133.31;2081248;28;20314;-69
2021/01/25 02:18:41;;;;;;;24.80;18.83;;;;;;;0.96;88.44;97141.25;2081126;28;20235;-69
2021/01/25 02:19:54;;;;;;;22.38;17.88;;;;;;;0.96;88.86;97144.66;2081334;28;20367;-69
2021/01/25 02:20:56;;;;;;;24.00;18.05;;;;;;;0.94;88.99;97140.75;2080963;28;20224;-69
2021/01/25 02:22:06;;;;;;;20.40;17.05;;;;;;;0.94;88.42;97153.88;2081263;28;20314;-70
2021/01/25 02:23:26;;;;;;;23.90;16.55;;;;;;;0.90;89.02;97148.41;2080963;28;20239;-72
2021/01/25 02:24:33;;;;;;;21.80;16.80;;;;;;;0.98;88.48;97149.63;2080897;28;20696;-70
2021/01/25 02:25:39;;;;;;;22.15;17.10;;;;;;;0.94;88.27;97141.53;2080366;28;20239;-70
2021/01/25 02:27:02;;;;;;;22.83;17.48;;;;;;;1.00;88.17;97148.28;2080109;28;20271;-70
2021/01/25 02:28:05;;;;;;;23.20;16.63;;;;;;;0.96;88.28;97143.88;2097001;28;20236;-70
2021/01/25 02:29:06;;;;;;;22.73;16.38;;;;;;;0.97;88.09;97154.09;2096879;28;20225;-69
2021/01/25 02:30:08;;;;;;;21.95;16.30;;;;;;;0.97;88.27;97151.47;2079848;28;20721;-70
2021/01/25 02:31:10;;;;;;;21.92;17.85;;;;;;;0.90;88.27;97143.16;2080448;28;20228;-70
2021/01/25 02:32:11;;;;;;;24.30;18.88;;;;;;;0.99;88.16;97157.22;2081131;28;20234;-69
2021/01/25 02:33:14;;;;;;;23.40;18.23;;;;;;;0.97;88.27;97161.22;2081116;28;20235;-70
2021/01/25 02:34:14;;;;;;;20.98;18.15;;;;;;;0.98;88.06;97160.13;2081203;28;20225;-70
2021/01/25 02:35:17;;;;;;;21.67;18.40;;;;;;;0.95;88.62;97158.84;2081262;28;20223;-72
2021/01/25 02:36:18;;;;;;;21.73;18.27;;;;;;;0.92;88.63;97158.63;2081300;28;20223;-70
2021/01/25 02:37:20;;;;;;;22.67;17.63;;;;;;;0.91;88.92;97152.59;2081210;28;20216;-70
2021/01/25 02:38:22;;;;;;;24.75;17.88;;;;;;;0.92;89.17;97151.53;2081276;28;20234;-70
2021/01/25 02:39:24;;;;;;;19.08;16.67;;;;;;;0.87;88.48;97145.53;2080846;28;20227;-71
2021/01/25 02:40:25;;;;;;;24.63;18.30;;;;;;;0.77;88.91;97134.09;2080916;28;20303;-70
2021/01/25 02:41:28;;;;;;;21.48;16.80;;;;;;;0.84;89.11;97155.56;2080221;28;20284;-70
2021/01/25 02:42:29;;;;;;;23.45;18.23;;;;;;;0.90;88.70;97150.25;2072356;28;20220;-71
2021/01/25 02:43:32;;;;;;;22.25;17.58;;;;;;;0.89;88.46;97151.31;2080471;28;20712;-70
2021/01/25 02:44:34;;;;;;;19.15;17.05;;;;;;;0.93;88.43;97153.09;2081129;28;20219;-70
2021/01/25 02:45:35;;;;;;;22.48;18.05;;;;;;;0.82;88.30;97149.81;2081121;28;20231;-70
2021/01/25 02:46:36;;;;;;;21.20;16.90;;;;;;;0.93;88.42;97157.56;2081134;28;20732;-70
2021/01/25 02:47:38;;;;;;;21.15;17.98;;;;;;;0.87;88.22;97146.34;2078609;28;20227;-70
2021/01/25 02:48:39;;;;;;;24.08;17.95;;;;;;;0.97;88.01;97156.72;2081079;28;20258;-70
2021/01/25 02:49:40;;;;;;;29.10;17.77;;;;;;;1.00;88.09;97156.16;2081243;28;20239;-71
2021/01/25 02:50:49;;;;;;;22.55;17.30;;;;;;;1.01;87.99;97156.94;2081044;28;20223;-70
2021/01/25 02:51:50;;;;;;;19.80;17.08;;;;;;;0.96;88.11;97155.19;2079804;28;20215;-70
2021/01/25 02:52:51;;;;;;;24.73;16.75;;;;;;;0.91;88.36;97154.44;2079890;28;20298;-70
2021/01/25 02:53:52;;;;;;;23.00;17.33;;;;;;;0.96;88.26;97151.78;2079793;28;20231;-74
2021/01/25 02:54:54;;;;;;;21.00;16.83;;;;;;;0.92;87.74;97148.91;2080215;28;20646;-70
2021/01/25 02:55:56;;;;;;;21.75;17.38;;;;;;;0.87;88.05;97148.16;2080329;28;20677;-69
2021/01/25 02:56:57;;;;;;;20.77;17.45;;;;;;;0.79;88.22;97136.47;2081041;28;20227;-70
2021/01/25 02:57:59;;;;;;;22.50;17.70;;;;;;;0.91;87.94;97152.59;2080276;28;20220;-70
2021/01/25 02:59:01;;;;;;;22.15;17.85;;;;;;;0.94;87.65;97143.38;2080250;28;20231;-70
2021/01/25 03:00:05;;;;;;;22.38;18.50;;;;;;;0.93;87.87;97150.47;2080215;28;20261;-70
2021/01/25 03:01:05;;;;;;;20.73;17.75;;;;;;;0.95;87.50;97150.97;2080071;28;20676;-70
2021/01/25 03:02:08;;;;;;;20.05;17.70;;;;;;;0.91;87.97;97149.97;2080622;28;20647;-71
2021/01/25 03:03:09;;;;;;;22.25;17.52;;;;;;;0.91;88.15;97155.22;2080858;28;20227;-70
2021/01/25 03:04:10;;;;;;;24.67;16.63;;;;;;;0.89;88.33;97157.34;2080141;28;20704;-70
2021/01/25 03:05:12;;;;;;;25.05;17.80;;;;;;;0.85;87.93;97146.59;2072032;28;20222;-70
2021/01/25 03:06:13;;;;;;;21.25;17.88;;;;;;;0.87;87.81;97148.97;2080236;28;20233;-70
2021/01/25 03:07:15;;;;;;;21.13;18.17;;;;;;;0.92;87.90;97162.03;2079993;28;20215;-70
2021/01/25 03:08:16;;;;;;;22.55;17.70;;;;;;;0.94;87.86;97165.16;2080150;28;20219;-70
2021/01/25 03:09:17;;;;;;;19.67;17.00;;;;;;;0.97;87.72;97164.59;2080721;28;20229;-71
2021/01/25 03:10:18;;;;;;;20.42;17.00;;;;;;;0.88;87.83;97147.91;2080840;28;20283;-70
2021/01/25 03:11:20;;;;;;;18.77;16.67;;;;;;;0.97;87.75;97164.59;2080129;28;20246;-69
2021/01/25 03:12:23;;;;;;;20.30;18.20;;;;;;;0.95;87.76;97156.22;2080099;28;20277;-71
2021/01/25 03:13:26;;;;;;;21.40;17.75;;;;;;;0.95;87.54;97155.44;2079662;28;20223;-70
2021/01/25 03:14:28;;;;;;;19.52;17.67;;;;;;;0.97;87.57;97159.34;2072110;28;20224;-71
2021/01/25 03:15:30;;;;;;;18.52;16.63;;;;;;;0.94;87.99;97159.91;2072247;28;20226;-70
2021/01/25 03:16:31;;;;;;;18.73;16.77;;;;;;;0.91;87.65;97157.06;2080158;28;20274;-70
2021/01/25 03:17:32;;;;;;;22.80;16.47;;;;;;;0.85;87.58;97132.69;2080818;28;20685;-69
2021/01/25 03:18:33;;;;;;;20.27;16.85;;;;;;;0.94;87.65;97159.91;2080857;28;20228;-70
2021/01/25 03:19:35;;;;;;;18.17;16.42;;;;;;;0.87;88.27;97154.22;2080051;28;20239;-69
2021/01/25 03:20:35;;;;;;;18.83;16.83;;;;;;;0.92;88.15;97156.00;2080159;28;20242;-69
2021/01/25 03:21:46;;;;;;;20.40;18.13;;;;;;;0.88;88.35;97155.78;2080064;28;20227;-70
2021/01/25 03:22:46;;;;;;;21.42;19.30;;;;;;;0.94;88.46;97159.13;2079817;28;20237;-70
2021/01/25 03:23:47;;;;;;;21.77;19.47;;;;;;;0.94;88.50;97165.16;2080773;28;20227;-70
2021/01/25 03:24:48;;;;;;;24.95;18.17;;;;;;;0.90;88.58;97158.13;2079873;28;20302;-69
2021/01/25 03:25:50;;;;;;;22.20;17.77;;;;;;;0.83;88.94;97151.38;2080139;28;20318;-70
2021/01/25 03:26:51;;;;;;;20.25;18.02;;;;;;;0.87;88.74;97156.84;2079846;28;20545;-70
2021/01/25 03:27:52;;;;;;;21.03;18.90;;;;;;;0.79;89.01;97146.97;2079557;28;20223;-73
2021/01/25 03:28:53;;;;;;;19.58;17.58;;;;;;;0.88;88.86;97161.03;2079905;28;20297;-70
2021/01/25 03:29:55;;;;;;;21.13;18.13;;;;;;;0.82;89.02;97157.69;2080098;28;20227;-70
2021/01/25 03:30:56;;;;;;;23.35;17.88;;;;;;;0.82;89.08;97162.16;2080219;28;20451;-69
2021/01/25 03:31:58;;;;;;;19.70;17.63;;;;;;;0.79;89.23;97162.72;2079264;28;20242;-70
2021/01/25 03:32:59;;;;;;;19.90;17.52;;;;;;;0.71;89.58;97153.59;2080001;28;20223;-70
2021/01/25 03:34:00;;;;;;;20.80;18.67;;;;;;;0.70;89.86;97165.16;2080639;28;20350;-69
2021/01/25 03:35:01;;;;;;;22.83;17.80;;;;;;;0.68;89.82;97162.03;2079848;28;20281;-70
2021/01/25 03:36:02;;;;;;;21.85;17.83;;;;;;;0.69;90.16;97150.47;2072042;28;20215;-70
2021/01/25 03:37:05;;;;;;;19.65;17.52;;;;;;;0.69;90.33;97165.41;2071720;28;20227;-70
2021/01/25 03:38:05;;;;;;;22.95;18.50;;;;;;;0.69;90.04;97165.41;2072084;28;20216;-69
2021/01/25 03:39:07;;;;;;;21.10;18.50;;;;;;;0.60;90.43;97159.22;2071572;28;20675;-69
2021/01/25 03:40:09;;;;;;;22.38;18.48;;;;;;;0.59;90.40;97162.91;2073227;28;20228;-70
2021/01/25 03:41:10;;;;;;;20.55;17.70;;;;;;;0.67;90.44;97163.09;2076956;28;20777;-69
2021/01/25 03:42:11;;;;;;;20.02;16.98;;;;;;;0.67;89.87;97167.56;2079654;28;20587;-70
2021/01/25 03:43:14;;;;;;;21.23;17.57;;;;;;;0.66;90.08;97153.66;2080021;28;20232;-70
2021/01/25 03:44:15;;;;;;;23.25;17.88;;;;;;;0.63;89.86;97148.97;2080579;28;20266;-69
2021/01/25 03:45:17;;;;;;;21.95;16.80;;;;;;;0.64;90.13;97155.78;2080646;28;20233;-69
2021/01/25 03:46:18;;;;;;;21.65;16.95;;;;;;;0.64;89.89;97147.13;2079693;28;20286;-70
2021/01/25 03:47:20;;;;;;;19.60;17.45;;;;;;;0.66;90.21;97150.25;2080009;28;20231;-70
2021/01/25 03:48:21;;;;;;;19.33;17.25;;;;;;;0.63;90.50;97163.94;2080264;28;20326;-70
2021/01/25 03:49:22;;;;;;;22.60;18.45;;;;;;;0.64;90.36;97160.25;2071338;28;20232;-70
2021/01/25 03:50:23;;;;;;;21.98;18.70;;;;;;;0.61;90.37;97155.53;2071563;28;20563;-70
2021/01/25 03:51:24;;;;;;;23.47;19.27;;;;;;;0.60;90.17;97153.97;2071011;28;20301;-69
2021/01/25 03:52:25;;;;;;;20.88;17.48;;;;;;;0.60;90.73;97153.97;2071672;28;20311;-69
2021/01/25 03:53:27;;;;;;;19.03;17.00;;;;;;;0.56;90.50;97162.41;2071485;28;20228;-70
2021/01/25 03:54:27;;;;;;;22.40;18.30;;;;;;;0.51;90.77;97156.41;2071682;28;20224;-69
2021/01/25 03:55:29;;;;;;;19.70;17.47;;;;;;;0.51;91.01;97164.28;2071804;28;20224;-70
2021/01/25 03:56:29;;;;;;;20.20;17.92;;;;;;;0.50;91.31;97157.47;2071646;28;20220;-69
2021/01/25 03:57:31;;;;;;;24.03;18.13;;;;;;;0.48;91.55;97160.38;2072221;28;20747;-70
2021/01/25 03:58:31;;;;;;;23.98;17.80;;;;;;;0.51;91.45;97162.44;2072314;28;20220;-70
2021/01/25 03:59:33;;;;;;;21.27;18.03;;;;;;;0.51;91.36;97154.56;2072268;28;20228;-70
2021/01/25 04:00:34;;;;;;;22.75;18.65;;;;;;;0.55;91.16;97160.84;2072379;28;20246;-70
2021/01/25 04:01:36;;;;;;;22.42;18.60;;;;;;;0.56;91.53;97159.78;2071475;28;20224;-70
2021/01/25 04:02:37;;;;;;;20.30;17.63;;;;;;;0.56;91.40;97159.78;2063025;28;20311;-72
2021/01/25 04:03:38;;;;;;;20.10;17.90;;;;;;;0.57;91.31;97150.84;2071351;28;20232;-70
2021/01/25 04:04:39;;;;;;;20.95;18.48;;;;;;;0.60;91.34;97157.38;2071711;28;20734;-70
2021/01/25 04:05:40;;;;;;;21.38;18.48;;;;;;;0.55;91.40;97146.94;2072283;28;20602;-70
2021/01/25 04:06:41;;;;;;;22.80;18.83;;;;;;;0.47;91.68;97150.19;2071322;28;20243;-70
2021/01/25 04:07:42;;;;;;;28.10;19.13;;;;;;;0.48;91.86;97151.72;2071510;28;20228;-70
2021/01/25 04:08:43;;;;;;;21.55;18.05;;;;;;;0.46;92.40;97148.63;2071366;28;20308;-69
2021/01/25 04:09:44;;;;;;;26.27;19.77;;;;;;;0.44;92.33;97154.16;2071681;28;20271;-69
2021/01/25 04:10:45;;;;;;;24.10;20.42;;;;;;;0.44;92.61;97148.13;2072345;28;20224;-70
2021/01/25 04:11:46;;;;;;;21.40;18.97;;;;;;;0.43;92.52;97154.41;2072338;28;20223;-69
2021/01/25 04:12:47;;;;;;;23.70;18.95;;;;;;;0.39;92.87;97148.94;2071426;28;20220;-69
2021/01/25 04:13:48;;;;;;;26.83;19.83;;;;;;;0.40;93.22;97154.97;2071453;28;20230;-70
2021/01/25 04:14:49;;;;;;;27.95;20.45;;;;;;;0.37;93.11;97140.56;2071147;28;20220;-70
2021/01/25 04:15:51;;;;;;;24.83;19.40;;;;;;;0.39;93.77;97148.16;2065634;28;20221;-69
2021/01/25 04:16:52;;;;;;;26.05;19.80;;;;;;;0.38;93.81;97142.13;2073330;28;20807;-71
2021/01/25 04:17:53;;;;;;;25.03;19.20;;;;;;;0.40;93.51;97149.72;2073326;28;20615;-71
2021/01/25 04:18:54;;;;;;;28.60;20.00;;;;;;;0.39;93.89;97148.94;2071456;28;20306;-69
2021/01/25 04:19:56;;;;;;;24.85;19.38;;;;;;;0.37;93.98;97145.81;2094101;28;20228;-69
2021/01/25 04:20:56;;;;;;;22.35;18.77;;;;;;;0.33;94.04;97149.25;2096001;28;20232;-69
2021/01/25 04:21:58;;;;;;;28.10;19.20;;;;;;;0.32;94.15;97150.31;2080251;28;20242;-69
2021/01/25 04:22:58;;;;;;;25.38;19.58;;;;;;;0.34;94.21;97156.06;2080460;28;20220;-69
2021/01/25 04:24:00;;;;;;;25.37;20.33;;;;;;;0.35;94.07;97144.50;2079611;28;20223;-69
2021/01/25 04:25:01;;;;;;;25.48;20.05;;;;;;;0.41;93.78;97152.06;2079707;28;20223;-70
2021/01/25 04:26:02;;;;;;;31.30;21.07;;;;;;;0.38;94.10;97151.84;2079515;28;20270;-70
2021/01/25 04:27:03;;;;;;;25.88;19.80;;;;;;;0.29;94.10;97141.16;2079677;28;20465;-70
2021/01/25 04:28:05;;;;;;;24.98;19.05;;;;;;;0.32;94.41;97151.09;2080153;28;20273;-70
2021/01/25 04:29:05;;;;;;;24.83;19.75;;;;;;;0.19;94.71;97134.19;2080303;28;20227;-69
2021/01/25 04:30:09;;;;;;;25.93;19.93;;;;;;;0.25;94.71;97148.00;2080399;28;20227;-70
2021/01/25 04:31:11;;;;;;;23.20;20.15;;;;;;;0.23;94.92;97145.66;2095670;28;20566;-70
2021/01/25 04:32:12;;;;;;;26.10;21.30;;;;;;;0.28;95.12;97150.88;2095926;28;20229;-71
2021/01/25 04:33:13;;;;;;;26.20;20.38;;;;;;;0.28;95.11;97147.47;2080290;28;20308;-70
2021/01/25 04:34:14;;;;;;;27.83;20.87;;;;;;;0.26;95.03;97150.38;2080395;28;20232;-69
2021/01/25 04:35:15;;;;;;;29.83;20.58;;;;;;;0.26;95.27;97145.13;2080266;28;20689;-69
2021/01/25 04:36:16;;;;;;;28.17;21.35;;;;;;;0.23;95.44;97145.66;2080237;28;20243;-70
2021/01/25 04:37:18;;;;;;;29.60;20.67;;;;;;;0.20;95.34;97143.59;2080337;28;20250;-70
2021/01/25 04:38:19;;;;;;;27.90;20.85;;;;;;;0.20;95.76;97145.44;2080350;28;20220;-70
2021/01/25 04:39:20;;;;;;;31.88;20.90;;;;;;;0.18;95.58;97134.47;2080322;28;20223;-70
2021/01/25 04:40:21;;;;;;;31.87;20.27;;;;;;;0.17;95.77;97138.88;2080391;28;20272;-70
2021/01/25 04:41:22;;;;;;;25.52;20.23;;;;;;;0.15;96.06;97140.22;2079898;28;20276;-71
2021/01/25 04:42:23;;;;;;;29.43;20.03;;;;;;;0.23;95.91;97144.88;2080301;28;20223;-70
2021/01/25 04:43:25;;;;;;;30.70;20.42;;;;;;;0.17;95.90;97146.75;2080269;28;20243;-70
2021/01/25 04:44:27;;;;;;;26.33;20.52;;;;;;;0.22;95.71;97138.06;2080390;28;20219;-69
2021/01/25 04:45:28;;;;;;;28.38;20.35;;;;;;;0.18;95.63;97131.84;2079430;28;20690;-69
2021/01/25 04:46:31;;;;;;;28.27;20.75;;;;;;;0.20;95.97;97134.97;2079688;28;20302;-69